Baltimore, Maryland
Traffic Map
Current Weather Conditions
Baltimore, Maryland
Overcast Light Snow
Overcast
27°
Feels Like: 19°
Wind Chill: 19° Ceiling: 2800
Heat Index: 27° Visibility: 6mi
Dew Point: 22° Wind: 8mph
Humidity: 81% Direction: 330° (NNW)
Pressure: 29.73in Gusts: 0mph
Raw Report DataKBWI 270754Z 33007KT 6SM -SN FEW015 OVC028 M03/M06 A2973 RMK AO2 SLP069 P0000 T10281056
Traffic Incident Summary
Active as of:
Severity:
Category:
InformationThere was an issue retrieving the traffic information for this location. Please try a different location or try again shortly.
Advertisements
Track Severe Weather on mobile